createdAt,value
2019-02-04T00:00:43.923Z,38.77
2019-02-04T00:03:15.906Z,37.53
2019-02-04T00:05:47.012Z,36.27
2019-02-04T00:08:18.138Z,37.00
2019-02-04T00:10:49.194Z,34.30
2019-02-04T00:13:19.854Z,40.93
2019-02-04T00:15:50.943Z,42.27
2019-02-04T00:18:21.741Z,42.13
2019-02-04T00:20:52.704Z,41.40
2019-02-04T00:23:23.993Z,40.43
2019-02-04T00:25:55.186Z,41.43
2019-02-04T00:28:26.147Z,41.03
2019-02-04T00:30:57.157Z,41.33
2019-02-04T00:33:28.120Z,39.73
2019-02-04T00:36:00.889Z,37.40
2019-02-04T00:38:31.805Z,38.53
2019-02-04T00:41:02.466Z,42.50
2019-02-04T00:43:33.179Z,42.83
2019-02-04T00:46:04.127Z,42.80
2019-02-04T00:48:35.044Z,43.20
2019-02-04T00:51:05.733Z,44.77
2019-02-04T00:53:36.557Z,43.33
2019-02-04T00:56:07.887Z,45.63
2019-02-04T00:58:39.768Z,42.43
2019-02-04T01:01:10.808Z,41.47
2019-02-04T01:03:41.474Z,43.17
2019-02-04T01:06:12.333Z,39.00
2019-02-04T01:08:43.280Z,38.77
2019-02-04T01:11:14.302Z,42.47
2019-02-04T01:13:45.432Z,36.70
2019-02-04T01:16:16.322Z,37.27
2019-02-04T01:18:47.366Z,35.83
2019-02-04T01:21:18.236Z,37.80
2019-02-04T01:23:49.116Z,42.63
2019-02-04T01:26:20.163Z,39.50
2019-02-04T01:28:50.912Z,33.57
2019-02-04T01:31:21.859Z,34.90
2019-02-04T01:33:53.594Z,37.10
2019-02-04T01:36:24.483Z,32.23
2019-02-04T01:38:55.942Z,30.37
2019-02-04T01:41:26.880Z,29.13
2019-02-04T01:43:57.978Z,27.63
2019-02-04T01:46:28.759Z,29.77
2019-02-04T01:48:59.941Z,32.23
2019-02-04T01:51:31.171Z,27.23
2019-02-04T01:54:02.017Z,32.10
2019-02-04T01:56:32.803Z,26.53
2019-02-04T01:59:03.795Z,25.47
2019-02-04T02:01:34.574Z,30.27
2019-02-04T02:04:05.673Z,30.63
2019-02-04T02:06:36.361Z,27.27
2019-02-04T02:09:22.160Z,31.27
2019-02-04T02:11:53.372Z,27.87
2019-02-04T02:14:24.683Z,28.70
2019-02-04T02:16:55.574Z,27.13
2019-02-04T02:19:26.410Z,25.50
2019-02-04T02:21:57.369Z,24.03
2019-02-04T02:24:28.061Z,27.43
2019-02-04T02:26:59.088Z,23.40
2019-02-04T02:29:30.030Z,23.13
2019-02-04T02:32:01.085Z,23.43
2019-02-04T02:34:31.988Z,19.10
2019-02-04T02:37:02.982Z,24.20
2019-02-04T02:39:34.293Z,25.10
2019-02-04T02:42:05.516Z,26.97
2019-02-04T02:44:36.417Z,28.37
2019-02-04T02:47:07.119Z,22.87
2019-02-04T02:49:38.144Z,17.47
2019-02-04T02:52:08.812Z,18.20
2019-02-04T02:54:39.617Z,23.10
2019-02-04T02:57:10.477Z,17.07
2019-02-04T02:59:41.116Z,18.13
2019-02-04T03:02:11.752Z,20.77
2019-02-04T03:04:42.584Z,20.23
2019-02-04T03:07:13.186Z,16.97
2019-02-04T03:09:43.751Z,17.40
2019-02-04T03:12:14.533Z,20.10
2019-02-04T03:14:45.344Z,18.60
2019-02-04T03:17:16.071Z,16.67
2019-02-04T03:19:46.776Z,17.20
2019-02-04T03:22:17.767Z,18.47
2019-02-04T03:24:49.067Z,17.83
2019-02-04T03:27:20.199Z,16.77
2019-02-04T03:29:51.045Z,21.37
2019-02-04T03:32:22.160Z,19.90
2019-02-04T03:34:53.214Z,16.73
2019-02-04T03:37:24.179Z,13.30
2019-02-04T03:39:55.091Z,15.80
2019-02-04T03:42:25.861Z,17.23
2019-02-04T03:44:57.257Z,17.83
2019-02-04T03:47:28.237Z,17.67
2019-02-04T03:50:00.324Z,14.43
2019-02-04T03:52:31.870Z,15.90
2019-02-04T03:55:02.394Z,13.37
2019-02-04T03:57:33.303Z,17.50
2019-02-04T04:00:04.548Z,12.53
2019-02-04T04:02:36.148Z,13.00
2019-02-04T04:05:07.850Z,15.27
2019-02-04T04:07:38.946Z,15.23
2019-02-04T04:10:11.142Z,13.93
2019-02-04T04:12:42.128Z,14.97
2019-02-04T04:15:13.175Z,13.80
2019-02-04T04:17:44.120Z,17.13
2019-02-04T04:20:16.075Z,15.87
2019-02-04T04:22:46.856Z,14.33
2019-02-04T04:25:17.793Z,14.20
2019-02-04T04:27:48.745Z,18.20
2019-02-04T04:30:24.699Z,14.57
2019-02-04T04:32:56.410Z,14.47
2019-02-04T04:35:27.301Z,12.80
2019-02-04T04:37:58.414Z,15.67
2019-02-04T04:40:29.071Z,14.50
2019-02-04T04:42:59.971Z,10.67
2019-02-04T04:45:30.859Z,12.83
2019-02-04T04:48:01.433Z,14.33
2019-02-04T04:50:32.545Z,13.63
2019-02-04T04:53:03.364Z,15.30
2019-02-04T04:55:33.993Z,14.70
2019-02-04T04:58:05.002Z,13.47
2019-02-04T05:00:36.180Z,13.83
2019-02-04T05:03:07.039Z,12.10
2019-02-04T05:05:37.915Z,13.83
2019-02-04T05:08:09.103Z,15.03
2019-02-04T05:10:39.737Z,15.53
2019-02-04T05:13:10.667Z,19.13
2019-02-04T05:15:41.304Z,16.33
2019-02-04T05:18:11.961Z,15.30
2019-02-04T05:20:42.934Z,13.40
2019-02-04T05:23:14.046Z,15.00
2019-02-04T05:25:45.098Z,16.90
2019-02-04T05:28:16.332Z,14.90
2019-02-04T05:30:47.362Z,16.57
2019-02-04T05:33:18.171Z,18.13
2019-02-04T05:35:48.878Z,21.97
2019-02-04T05:38:20.578Z,15.63
2019-02-04T05:40:52.604Z,16.10
2019-02-04T05:43:23.626Z,17.23
2019-02-04T05:45:54.506Z,20.77
2019-02-04T05:48:25.394Z,23.07
2019-02-04T05:50:56.356Z,21.43
2019-02-04T05:53:27.306Z,21.00
2019-02-04T05:55:59.973Z,26.63
2019-02-04T05:58:32.985Z,24.23
2019-02-04T06:01:03.415Z,22.93
2019-02-04T06:03:34.259Z,19.87
2019-02-04T06:06:05.145Z,20.27
2019-02-04T06:08:35.975Z,20.17
2019-02-04T06:11:06.683Z,21.87
2019-02-04T06:13:37.627Z,22.53
2019-02-04T06:16:08.741Z,22.40
2019-02-04T06:18:40.015Z,25.23
2019-02-04T06:21:10.795Z,27.60
2019-02-04T06:23:41.678Z,26.23
2019-02-04T06:26:12.527Z,21.33
2019-02-04T06:28:43.415Z,20.20
2019-02-04T06:31:14.183Z,22.80
2019-02-04T06:33:45.162Z,21.83
2019-02-04T06:36:16.044Z,18.83
2019-02-04T06:38:47.172Z,21.37
2019-02-04T06:41:19.845Z,21.80
2019-02-04T06:43:50.766Z,19.27
2019-02-04T06:46:21.659Z,25.50
2019-02-04T06:48:52.573Z,28.30
2019-02-04T06:51:23.465Z,27.20
2019-02-04T06:53:54.662Z,25.50
2019-02-04T06:56:25.906Z,14.90
2019-02-04T06:58:56.810Z,16.87
2019-02-04T07:01:27.835Z,21.83
2019-02-04T07:03:58.700Z,15.40
2019-02-04T07:06:29.681Z,14.83
2019-02-04T07:09:00.460Z,14.93
2019-02-04T07:11:32.984Z,17.20
2019-02-04T07:14:03.983Z,15.67
2019-02-04T07:16:34.838Z,16.50
2019-02-04T07:19:06.270Z,15.50
2019-02-04T07:21:37.602Z,21.67
2019-02-04T07:24:09.016Z,21.37
2019-02-04T07:26:40.373Z,19.07
2019-02-04T07:29:11.664Z,18.20
2019-02-04T07:31:43.228Z,17.40
2019-02-04T07:34:14.150Z,20.27
2019-02-04T07:36:45.579Z,18.83
2019-02-04T07:39:16.655Z,27.47
2019-02-04T07:41:47.993Z,25.07
2019-02-04T07:44:19.922Z,20.40
2019-02-04T07:46:51.268Z,23.93
2019-02-04T07:49:22.715Z,23.27
2019-02-04T07:51:53.787Z,31.03
2019-02-04T07:54:24.797Z,28.90
2019-02-04T07:56:56.095Z,33.73
2019-02-04T07:59:26.988Z,22.10
2019-02-04T08:01:58.973Z,19.53
2019-02-04T08:04:30.201Z,22.87
2019-02-04T08:07:01.770Z,16.37
2019-02-04T08:09:32.634Z,17.37
2019-02-04T08:12:03.660Z,22.77
2019-02-04T08:14:35.002Z,18.53
2019-02-04T08:17:06.853Z,19.07
2019-02-04T08:19:46.905Z,23.83
2019-02-04T08:22:11.150Z,22.23
2019-02-04T08:24:42.019Z,26.10
2019-02-04T08:27:13.390Z,23.00
2019-02-04T08:29:44.226Z,24.63
2019-02-04T08:32:14.984Z,25.73
2019-02-04T08:34:46.070Z,29.00
2019-02-04T08:37:16.799Z,32.53
2019-02-04T08:39:47.565Z,25.67
2019-02-04T08:42:18.539Z,30.40
2019-02-04T08:44:49.534Z,30.33
2019-02-04T08:47:23.098Z,26.57
2019-02-04T08:49:58.438Z,33.10
2019-02-04T08:52:25.751Z,29.20
2019-02-04T08:54:57.125Z,30.10
2019-02-04T08:57:28.375Z,31.20
2019-02-04T08:59:59.935Z,31.67
2019-02-04T09:02:31.484Z,30.60
2019-02-04T09:05:03.580Z,34.33
2019-02-04T09:07:34.761Z,33.97
2019-02-04T09:10:06.335Z,35.30
2019-02-04T09:12:37.003Z,32.93
2019-02-04T09:15:09.510Z,31.17
2019-02-04T09:17:40.628Z,34.73
2019-02-04T09:20:12.857Z,30.70
2019-02-04T09:22:43.856Z,33.30
2019-02-04T09:25:16.093Z,37.40
2019-02-04T09:27:47.315Z,34.67
2019-02-04T09:30:20.334Z,33.77
2019-02-04T09:32:51.549Z,30.70
2019-02-04T09:35:22.724Z,32.57
2019-02-04T09:37:53.787Z,31.17
2019-02-04T09:40:33.229Z,35.40
2019-02-04T09:43:06.075Z,29.13
2019-02-04T09:45:37.803Z,30.90
2019-02-04T09:48:10.620Z,33.53
2019-02-04T09:50:41.596Z,32.10
2019-02-04T09:53:12.950Z,30.53
2019-02-04T09:55:44.016Z,34.23
2019-02-04T09:58:14.884Z,34.27
2019-02-04T10:00:45.720Z,36.67
2019-02-04T10:03:16.816Z,28.33
2019-02-04T10:05:48.044Z,31.63
2019-02-04T10:08:18.839Z,32.63
2019-02-04T10:10:49.684Z,33.73
2019-02-04T10:13:20.825Z,40.77
2019-02-04T10:15:51.938Z,29.93
2019-02-04T10:18:23.430Z,27.23
2019-02-04T10:20:54.191Z,30.73
2019-02-04T10:23:25.133Z,28.83
2019-02-04T10:25:56.011Z,29.77
2019-02-04T10:28:27.200Z,25.93
2019-02-04T10:30:58.834Z,29.37
2019-02-04T10:33:30.055Z,27.23
2019-02-04T10:36:01.865Z,33.23
2019-02-04T10:38:33.465Z,23.97
2019-02-04T10:41:04.461Z,25.83
2019-02-04T10:43:36.309Z,27.53
2019-02-04T10:46:08.536Z,27.10
2019-02-04T10:48:39.357Z,33.20
2019-02-04T10:51:10.340Z,26.33
2019-02-04T10:53:41.029Z,27.95
2019-02-04T10:56:12.420Z,23.37
2019-02-04T10:58:43.283Z,28.33
2019-02-04T11:01:14.031Z,26.83
2019-02-04T11:03:44.830Z,32.33
2019-02-04T11:06:15.924Z,27.23
2019-02-04T11:08:46.710Z,26.60
2019-02-04T11:11:17.410Z,25.87
2019-02-04T11:13:48.087Z,28.03
2019-02-04T11:16:18.830Z,30.17
2019-02-04T11:18:49.848Z,27.77
2019-02-04T11:21:20.957Z,32.27
2019-02-04T11:23:52.372Z,23.47
2019-02-04T11:26:24.113Z,27.57
2019-02-04T11:28:55.061Z,19.03
2019-02-04T11:31:25.772Z,19.03
2019-02-04T11:33:56.489Z,21.00
2019-02-04T11:36:27.357Z,22.47
2019-02-04T11:38:58.624Z,26.47
2019-02-04T11:41:29.709Z,21.13
2019-02-04T11:44:00.707Z,24.63
2019-02-04T11:46:31.789Z,25.53
2019-02-04T11:49:03.078Z,22.83
2019-02-04T11:51:33.951Z,23.90
2019-02-04T11:54:05.049Z,23.43
2019-02-04T11:56:36.651Z,27.23
2019-02-04T11:59:07.947Z,27.37
2019-02-04T12:01:38.965Z,29.60
2019-02-04T12:04:09.841Z,28.10
2019-02-04T12:06:40.967Z,24.20
2019-02-04T12:09:12.283Z,29.03
2019-02-04T12:11:43.345Z,29.57
2019-02-04T12:14:15.219Z,33.40
2019-02-04T12:16:46.336Z,24.33
2019-02-04T12:19:17.123Z,32.20
2019-02-04T12:21:49.258Z,25.97
2019-02-04T12:24:20.085Z,36.60
2019-02-04T12:26:51.372Z,32.13
2019-02-04T12:29:22.202Z,34.50
2019-02-04T12:31:54.228Z,37.33
2019-02-04T12:34:24.809Z,30.67
2019-02-04T12:36:55.733Z,35.50
2019-02-04T12:39:26.721Z,29.47
2019-02-04T12:41:58.351Z,32.93
2019-02-04T12:44:29.007Z,30.83
2019-02-04T12:47:00.152Z,29.63
2019-02-04T12:49:33.220Z,32.40
2019-02-04T12:52:04.856Z,39.33
2019-02-04T12:54:36.235Z,32.00
2019-02-04T12:57:07.020Z,32.03
2019-02-04T12:59:38.689Z,27.33
2019-02-04T13:02:09.669Z,34.70
2019-02-04T13:04:41.152Z,27.03
2019-02-04T13:07:12.252Z,32.33
2019-02-04T13:09:42.986Z,25.83
2019-02-04T13:12:13.947Z,26.23
2019-02-04T13:14:44.753Z,26.17
2019-02-04T13:17:15.751Z,25.27
2019-02-04T13:19:47.016Z,24.83
2019-02-04T13:22:17.876Z,25.47
2019-02-04T13:24:48.861Z,28.03
2019-02-04T13:27:20.241Z,31.37
2019-02-04T13:29:51.369Z,29.93
2019-02-04T13:32:22.709Z,31.27
2019-02-04T13:34:53.981Z,31.77
2019-02-04T13:37:28.416Z,32.10
2019-02-04T13:39:59.326Z,31.90
2019-02-04T13:42:30.586Z,41.47
2019-02-04T13:45:01.679Z,33.53
2019-02-04T13:47:32.906Z,35.83
2019-02-04T13:50:03.420Z,34.00
2019-02-04T13:52:34.297Z,30.53
2019-02-04T13:55:07.471Z,33.60
2019-02-04T13:57:38.503Z,35.57
2019-02-04T14:00:12.288Z,32.07
2019-02-04T14:02:43.406Z,28.53
2019-02-04T14:05:14.705Z,27.13
2019-02-04T14:07:45.958Z,37.73
2019-02-04T14:10:22.718Z,33.00
2019-02-04T14:12:55.195Z,38.83
2019-02-04T14:15:29.065Z,36.60
2019-02-04T14:18:00.462Z,35.40
2019-02-04T14:20:31.814Z,42.10
2019-02-04T14:23:02.982Z,37.63
2019-02-04T14:25:34.220Z,44.30
2019-02-04T14:28:05.712Z,39.87
2019-02-04T14:30:38.571Z,39.40
2019-02-04T14:33:10.432Z,39.07
2019-02-04T14:35:41.234Z,39.20
2019-02-04T14:38:12.213Z,39.20
2019-02-04T14:40:44.315Z,38.80
2019-02-04T14:43:28.233Z,41.67
2019-02-04T14:46:36.442Z,43.13
2019-02-04T14:50:00.327Z,44.63
2019-02-04T14:52:58.911Z,37.83
2019-02-04T14:56:09.615Z,35.77
2019-02-04T14:59:09.631Z,42.33
2019-02-04T15:02:25.795Z,44.10
2019-02-04T15:05:38.185Z,39.70
2019-02-04T15:08:48.847Z,39.57
2019-02-04T15:11:31.257Z,50.57
2019-02-04T15:14:27.750Z,43.17
2019-02-04T15:17:22.722Z,49.63
2019-02-04T15:20:21.290Z,43.33
2019-02-04T15:23:29.708Z,51.57
2019-02-04T15:26:43.308Z,48.27
2019-02-04T15:29:46.317Z,56.53
2019-02-04T15:32:44.612Z,47.20
2019-02-04T15:35:38.867Z,49.10
2019-02-04T15:38:56.756Z,43.03
2019-02-04T15:42:32.017Z,43.73
2019-02-04T15:45:32.782Z,46.67
2019-02-04T15:48:10.860Z,52.73
2019-02-04T15:51:17.252Z,48.57
2019-02-04T15:53:48.201Z,55.10
2019-02-04T15:56:20.289Z,45.37
2019-02-04T15:58:51.231Z,47.27
2019-02-04T16:01:22.197Z,46.73
2019-02-04T16:03:52.726Z,46.47
2019-02-04T16:06:23.285Z,49.60
2019-02-04T16:08:54.163Z,50.60
2019-02-04T16:11:24.865Z,60.50
2019-02-04T16:13:57.167Z,48.47
2019-02-04T16:16:27.931Z,49.37
2019-02-04T16:18:58.758Z,48.23
2019-02-04T16:21:30.158Z,48.10
2019-02-04T16:24:01.465Z,49.13
2019-02-04T16:26:32.405Z,56.53
2019-02-04T16:29:03.221Z,47.87
2019-02-04T16:31:34.191Z,54.97
2019-02-04T16:34:05.380Z,49.97
2019-02-04T16:36:36.023Z,46.07
2019-02-04T16:39:10.113Z,53.33
2019-02-04T16:41:41.237Z,54.50
2019-02-04T16:44:12.140Z,59.90
2019-02-04T16:46:43.352Z,57.20
2019-02-04T16:49:14.230Z,56.57
2019-02-04T16:51:45.031Z,63.60
2019-02-04T16:54:15.853Z,68.00
2019-02-04T16:56:46.560Z,62.43
2019-02-04T16:59:17.522Z,87.10
2019-02-04T17:01:48.345Z,64.43
2019-02-04T17:04:19.019Z,64.50
2019-02-04T17:06:51.312Z,77.33
2019-02-04T17:09:22.325Z,64.70
2019-02-04T17:11:53.399Z,69.20
2019-02-04T17:14:24.254Z,77.07
2019-02-04T17:16:54.967Z,70.33
2019-02-04T17:19:25.611Z,63.60
2019-02-04T17:21:56.729Z,59.37
2019-02-04T17:24:27.690Z,67.63
2019-02-04T17:26:58.805Z,73.50
2019-02-04T17:29:29.998Z,81.70
2019-02-04T17:32:01.066Z,73.70
2019-02-04T17:34:31.933Z,76.63
2019-02-04T17:37:02.973Z,73.80
2019-02-04T17:39:34.448Z,68.63
2019-02-04T17:42:05.395Z,71.53
2019-02-04T17:44:36.292Z,74.47
2019-02-04T17:47:07.385Z,73.50
2019-02-04T17:49:38.583Z,72.83
2019-02-04T17:52:09.946Z,72.33
2019-02-04T17:54:40.782Z,83.50
2019-02-04T17:57:11.937Z,85.87
2019-02-04T17:59:42.798Z,78.33
2019-02-04T18:02:14.827Z,78.67
2019-02-04T18:04:45.618Z,80.63
2019-02-04T18:07:16.620Z,71.27
2019-02-04T18:09:47.529Z,77.60
2019-02-04T18:12:18.384Z,81.00
2019-02-04T18:14:49.317Z,83.27
2019-02-04T18:17:19.860Z,69.80
2019-02-04T18:19:50.812Z,85.93
2019-02-04T18:22:21.633Z,90.47
2019-02-04T18:24:52.319Z,90.63
2019-02-04T18:27:23.092Z,104.20
2019-02-04T18:29:53.893Z,85.83
2019-02-04T18:32:24.672Z,80.37
2019-02-04T18:34:55.552Z,75.80
2019-02-04T18:37:26.750Z,73.90
2019-02-04T18:39:57.573Z,68.13
2019-02-04T18:42:29.348Z,78.67
2019-02-04T18:45:00.007Z,76.20
2019-02-04T18:47:30.988Z,75.73
2019-02-04T18:50:01.603Z,80.83
2019-02-04T18:52:33.756Z,73.37
2019-02-04T18:55:05.429Z,85.33
2019-02-04T18:57:36.707Z,111.77
2019-02-04T19:00:08.923Z,118.27
2019-02-04T19:02:40.224Z,98.47
2019-02-04T19:05:11.493Z,93.70
2019-02-04T19:07:42.820Z,95.80
2019-02-04T19:10:15.183Z,93.43
2019-02-04T19:12:47.929Z,105.00
2019-02-04T19:15:20.663Z,94.20
2019-02-04T19:17:52.781Z,101.23
2019-02-04T19:20:24.188Z,108.13
2019-02-04T19:22:54.864Z,119.90
2019-02-04T19:25:25.492Z,107.80
2019-02-04T19:27:56.342Z,102.10
2019-02-04T19:30:32.308Z,88.03
2019-02-04T19:33:03.579Z,95.73
2019-02-04T19:35:35.847Z,114.20
2019-02-04T19:38:07.147Z,105.80
2019-02-04T19:40:38.394Z,101.90
2019-02-04T19:43:09.158Z,104.80
2019-02-04T19:45:40.114Z,97.60
2019-02-04T19:48:10.968Z,99.87
2019-02-04T19:50:41.882Z,93.23
2019-02-04T19:53:12.860Z,112.47
2019-02-04T19:55:43.524Z,234.93
2019-02-04T19:58:14.875Z,93.37
2019-02-04T20:00:45.689Z,92.30
2019-02-04T20:03:16.469Z,84.10
2019-02-04T20:05:47.512Z,83.77
2019-02-04T20:08:18.775Z,91.43
2019-02-04T20:10:50.550Z,85.30
2019-02-04T20:13:21.513Z,96.37
2019-02-04T20:15:52.305Z,94.47
2019-02-04T20:18:22.894Z,76.83
2019-02-04T20:20:53.618Z,84.27
2019-02-04T20:23:25.147Z,86.53
2019-02-04T20:25:56.520Z,88.90
2019-02-04T20:28:27.438Z,81.07
2019-02-04T20:30:58.150Z,87.67
2019-02-04T20:33:28.784Z,89.67
2019-02-04T20:35:59.542Z,93.23
2019-02-04T20:38:32.685Z,81.03
2019-02-04T20:41:03.921Z,76.90
2019-02-04T20:43:35.152Z,79.63
2019-02-04T20:46:06.222Z,80.80
2019-02-04T20:48:37.589Z,102.30
2019-02-04T20:51:08.841Z,101.53
2019-02-04T20:53:39.719Z,92.30
2019-02-04T20:56:10.464Z,112.57
2019-02-04T20:58:41.635Z,95.53
2019-02-04T21:01:12.966Z,111.17
2019-02-04T21:03:44.081Z,91.90
2019-02-04T21:06:14.916Z,81.33
2019-02-04T21:08:46.895Z,70.20
2019-02-04T21:11:17.714Z,82.10
2019-02-04T21:13:48.741Z,95.63
2019-02-04T21:16:19.711Z,88.93
2019-02-04T21:18:50.467Z,99.63
2019-02-04T21:21:21.495Z,100.00
2019-02-04T21:23:52.707Z,105.27
2019-02-04T21:26:23.263Z,87.83
2019-02-04T21:28:53.920Z,93.10
2019-02-04T21:31:24.629Z,102.10
2019-02-04T21:33:55.274Z,94.63
2019-02-04T21:36:28.322Z,91.17
2019-02-04T21:38:59.096Z,108.97
2019-02-04T21:41:29.676Z,104.97
2019-02-04T21:44:00.733Z,110.70
2019-02-04T21:46:31.575Z,108.57
2019-02-04T21:49:02.815Z,100.73
2019-02-04T21:51:33.694Z,103.33
2019-02-04T21:54:05.021Z,113.50
2019-02-04T21:56:36.585Z,105.83
2019-02-04T21:59:07.953Z,115.07
2019-02-04T22:01:38.788Z,110.60
2019-02-04T22:04:09.583Z,94.63
2019-02-04T22:06:40.561Z,109.27
2019-02-04T22:09:12.588Z,109.93
2019-02-04T22:11:43.729Z,114.10
2019-02-04T22:14:15.298Z,112.43
2019-02-04T22:16:46.279Z,113.97
2019-02-04T22:19:17.560Z,119.73
2019-02-04T22:21:49.331Z,125.10
2019-02-04T22:24:20.282Z,117.80
2019-02-04T22:26:51.317Z,131.13
2019-02-04T22:29:22.281Z,134.23
2019-02-04T22:31:53.292Z,123.63
2019-02-04T22:34:24.494Z,120.13
2019-02-04T22:36:55.602Z,100.90
2019-02-04T22:39:26.677Z,119.90
2019-02-04T22:41:57.614Z,108.93
2019-02-04T22:44:28.303Z,104.17
2019-02-04T22:46:59.187Z,117.03
2019-02-04T22:49:30.030Z,109.67
2019-02-04T22:52:01.530Z,126.97
2019-02-04T22:54:32.368Z,140.47
2019-02-04T22:57:03.463Z,112.10
2019-02-04T22:59:34.727Z,124.63
2019-02-04T23:02:06.282Z,116.07
2019-02-04T23:04:38.838Z,125.77
2019-02-04T23:07:10.020Z,120.27
2019-02-04T23:09:40.988Z,110.93
2019-02-04T23:12:11.889Z,111.10
2019-02-04T23:14:43.210Z,116.57
2019-02-04T23:17:13.897Z,117.30
2019-02-04T23:19:46.008Z,108.57
2019-02-04T23:22:16.895Z,101.97
2019-02-04T23:24:49.079Z,103.30
2019-02-04T23:27:20.366Z,95.83
2019-02-04T23:29:51.223Z,113.53
2019-02-04T23:32:22.044Z,117.30
2019-02-04T23:34:52.778Z,126.23
2019-02-04T23:37:23.764Z,130.40
2019-02-04T23:39:54.630Z,119.83
2019-02-04T23:42:25.205Z,121.53
2019-02-04T23:44:56.428Z,109.80
2019-02-04T23:47:27.289Z,119.30
2019-02-04T23:49:58.437Z,121.40
2019-02-04T23:52:29.171Z,106.40
2019-02-04T23:55:00.031Z,105.47
2019-02-04T23:57:31.071Z,124.27
